Station Historical Data
Daily Summary for January 8, 2017 Units:  Metric    English   Both
« Previous Day
Next Day »
Daily Weekly Monthly Yearly Custom
  High: Low: Average:
Temperature: -0.6 °C -9.1 °C -5.2 °C
Dew Point: -10.4 °C -14.1 °C -12.8 °C
Humidity: 68% 38% 56%
Wind Speed: 16.7km/h 16.7km/h 16.7km/h
Wind Gust: 16.7km/h - -
Wind- - ESE
Pressure: 1043.6 hPa 1037.5 hPa -
Precipitation: 0 mm    
Historical Graphs
 
 
Tabular Data for January 8, 2017
Time Temperature Dew Point Pressure Wind Wind Speed Wind Gust Humidity Rainfall Rate (Hourly) solar Conditions
00:04 -7.3 °C -13.4 °C 1037.5 hPa NW 16.7 km/h   62% 0 mm 0.0 W/m2 CLR
00:09 -7.4 °C -13.5 °C 1037.5 hPa NW 16.7 km/h   62% 0 mm 0.0 W/m2 CLR
00:14 -7.5 °C -13.6 °C 1037.5 hPa East 16.7 km/h 16.7 km/h 62% 0 mm 0.0 W/m2 CLR
00:19 -7.5 °C -13.3 °C 1037.5 hPa SE 16.7 km/h 16.7 km/h 63% 0 mm 0.0 W/m2 CLR
00:24 -7.6 °C -13.2 °C 1037.5 hPa ESE 16.7 km/h 16.7 km/h 64% 0 mm 0.0 W/m2 CLR
00:29 -7.6 °C -13.4 °C 1037.5 hPa ENE 16.7 km/h 16.7 km/h 63% 0 mm 0.0 W/m2 CLR
00:35 -7.7 °C -13.5 °C 1037.8 hPa NNE 16.7 km/h 16.7 km/h 63% 0 mm 0.0 W/m2 CLR
00:36 -7.7 °C -13.6 °C 1037.5 hPa East 16.7 km/h 16.7 km/h 63% 0 mm 0.0 W/m2 CLR
00:41 -7.7 °C -13.3 °C 1037.8 hPa WNW 16.7 km/h   64% 0 mm 0.0 W/m2 CLR
00:46 -7.8 °C -13.4 °C 1037.8 hPa WNW 16.7 km/h   64% 0 mm 0.0 W/m2 CLR
00:51 -7.8 °C -13.4 °C 1037.8 hPa SE 16.7 km/h   64% 0 mm 0.0 W/m2 CLR
00:56 -7.8 °C -13.3 °C 1037.8 hPa SSE 16.7 km/h 16.7 km/h 65% 0 mm 0.0 W/m2 CLR
01:01 -7.8 °C -13.4 °C 1037.8 hPa ENE 16.7 km/h 16.7 km/h 64% 0 mm 0.0 W/m2
01:06 -7.8 °C -13.4 °C 1037.8 hPa East 16.7 km/h 16.7 km/h 64% 0 mm 0.0 W/m2
01:11 -7.9 °C -13.5 °C 1037.8 hPa East 16.7 km/h 16.7 km/h 64% 0 mm 0.0 W/m2
01:17 -8 °C -13.4 °C 1037.8 hPa SW 16.7 km/h 16.7 km/h 65% 0 mm 0.0 W/m2
01:22 -8 °C -13.6 °C 1037.8 hPa West 16.7 km/h 16.7 km/h 64% 0 mm 0.0 W/m2
01:27 -8.1 °C -13.7 °C 1037.8 hPa East 16.7 km/h   64% 0 mm 0.0 W/m2
01:32 -8.1 °C -13.5 °C 1038.1 hPa NNE 16.7 km/h   65% 0 mm 0.0 W/m2
01:37 -8.1 °C -13.3 °C 1038.1 hPa NW 16.7 km/h   66% 0 mm 0.0 W/m2
01:42 -8.2 °C -13.6 °C 1038.1 hPa SSW 16.7 km/h 16.7 km/h 65% 0 mm 0.0 W/m2
01:47 -8.2 °C -13.3 °C 1038.1 hPa NW 16.7 km/h   67% 0 mm 0.0 W/m2
01:52 -8.2 °C -13.4 °C 1038.1 hPa SSW 16.7 km/h   66% 0 mm 0.0 W/m2
01:57 -8.3 °C -13.5 °C 1038.1 hPa NE 16.7 km/h 16.7 km/h 66% 0 mm 0.0 W/m2
02:02 -8.3 °C -13.5 °C 1038.1 hPa West 16.7 km/h 16.7 km/h 66% 0 mm 0.0 W/m2
02:07 -8.3 °C -13.4 °C 1038.1 hPa NW 16.7 km/h   67% 0 mm 0.0 W/m2
02:12 -8.3 °C -13.6 °C 1038.1 hPa East 16.7 km/h 16.7 km/h 66% 0 mm 0.0 W/m2
02:17 -8.4 °C -13.6 °C 1038.1 hPa WSW 16.7 km/h 16.7 km/h 66% 0 mm 0.0 W/m2
02:22 -8.4 °C -13.6 °C 1038.1 hPa NW 16.7 km/h   66% 0 mm 0.0 W/m2
02:27 -8.4 °C -13.5 °C 1038.5 hPa SSE 16.7 km/h 16.7 km/h 67% 0 mm 0.0 W/m2
02:32 -8.4 °C -13.5 °C 1038.5 hPa ESE 16.7 km/h 16.7 km/h 67% 0 mm 0.0 W/m2
02:37 -8.4 °C -13.5 °C 1038.5 hPa SE 16.7 km/h 16.7 km/h 67% 0 mm 0.0 W/m2
02:42 -8.5 °C -13.6 °C 1038.8 hPa SE 16.7 km/h 16.7 km/h 67% 0 mm 0.0 W/m2
02:48 -8.5 °C -13.6 °C 1038.8 hPa NE 16.7 km/h 16.7 km/h 67% 0 mm 0.0 W/m2
02:53 -8.5 °C -13.3 °C 1038.8 hPa WNW 16.7 km/h   68% 0 mm 0.0 W/m2
02:58 -8.7 °C -13.7 °C 1038.8 hPa ESE 16.7 km/h 16.7 km/h 67% 0 mm 0.0 W/m2
03:03 -9.1 °C -14.1 °C 1038.5 hPa ESE 16.7 km/h   67% 0 mm 0.0 W/m2
03:08 -9.1 °C -14.1 °C 1038.5 hPa ESE 16.7 km/h   67% 0 mm 0.0 W/m2
03:13 -9.1 °C -14.1 °C 1038.8 hPa North 16.7 km/h   67% 0 mm 0.0 W/m2
03:18 -9.1 °C -14.1 °C 1038.5 hPa North 16.7 km/h   67% 0 mm 0.0 W/m2
03:23 -9.1 °C -14.1 °C 1038.5 hPa North 16.7 km/h   67% 0 mm 0.0 W/m2
03:28 -9.1 °C -14.1 °C 1038.5 hPa North 16.7 km/h   67% 0 mm 0.0 W/m2
03:33 -9.1 °C -14.1 °C 1038.5 hPa North 16.7 km/h   67% 0 mm 0.0 W/m2
03:38 -9.1 °C -14.1 °C 1038.5 hPa North 16.7 km/h   67% 0 mm 0.0 W/m2
03:44 -9.1 °C -14.1 °C 1038.8 hPa North 16.7 km/h   67% 0 mm 0.0 W/m2
03:49 -9.1 °C -14.1 °C 1038.8 hPa North 16.7 km/h   67% 0 mm 0.0 W/m2
03:54 -9.1 °C -14.1 °C 1038.8 hPa North 16.7 km/h   67% 0 mm 0.0 W/m2
03:59 -9.1 °C -14.1 °C 1038.5 hPa North 16.7 km/h   67% 0 mm 0.0 W/m2
04:04 -9.1 °C -14.1 °C 1038.8 hPa North 16.7 km/h   67% 0 mm 0.0 W/m2
04:09 -9.1 °C -14.1 °C 1038.5 hPa North 16.7 km/h   67% 0 mm 0.0 W/m2
04:14 -9.1 °C -14.1 °C 1038.8 hPa North 16.7 km/h   67% 0 mm 0.0 W/m2
04:19 -9.1 °C -14.1 °C 1038.8 hPa North 16.7 km/h   67% 0 mm 0.0 W/m2
04:24 -9.1 °C -14.1 °C 1038.5 hPa North 16.7 km/h   67% 0 mm 0.0 W/m2
04:29 -9.1 °C -14.1 °C 1038.8 hPa North 16.7 km/h   67% 0 mm 0.0 W/m2
04:34 -9.1 °C -14.1 °C 1038.8 hPa North 16.7 km/h   67% 0 mm 0.0 W/m2
04:39 -9.1 °C -14.1 °C 1038.8 hPa North 16.7 km/h   67% 0 mm 0.0 W/m2
04:44 -9.1 °C -14.1 °C 1038.8 hPa North 16.7 km/h   67% 0 mm 0.0 W/m2
04:49 -9.1 °C -14.1 °C 1038.8 hPa North 16.7 km/h   67% 0 mm 0.0 W/m2
04:54 -9.1 °C -14.1 °C 1038.8 hPa North 16.7 km/h   67% 0 mm 0.0 W/m2
04:59 -9.1 °C -14.1 °C 1038.8 hPa North 16.7 km/h   67% 0 mm 0.0 W/m2
05:00 -9.1 °C -14.1 °C 1038.8 hPa North 16.7 km/h   67% 0 mm 0.0 W/m2
05:05 -9.1 °C -14.1 °C 1038.8 hPa North 16.7 km/h   67% 0 mm 0.0 W/m2
05:10 -9.1 °C -14.1 °C 1039.2 hPa North 16.7 km/h   67% 0 mm 0.0 W/m2
05:15 -9.1 °C -14.1 °C 1039.2 hPa North 16.7 km/h   67% 0 mm 0.0 W/m2
05:20 -9.1 °C -14.1 °C 1038.8 hPa North 16.7 km/h   67% 0 mm 0.0 W/m2
05:25 -9.1 °C -14.1 °C 1039.2 hPa North 16.7 km/h   67% 0 mm 0.0 W/m2
05:30 -9.1 °C -14.1 °C 1039.2 hPa North 16.7 km/h   67% 0 mm 0.0 W/m2
05:35 -9.1 °C -14.1 °C 1039.2 hPa North 16.7 km/h   67% 0 mm 0.0 W/m2
05:40 -9.1 °C -14.1 °C 1039.5 hPa North 16.7 km/h   67% 0 mm 0.0 W/m2
05:45 -9.1 °C -14.1 °C 1039.2 hPa North 16.7 km/h   67% 0 mm 0.0 W/m2
05:50 -9.1 °C -14.1 °C 1039.5 hPa North 16.7 km/h   67% 0 mm 0.0 W/m2
05:56 -9.1 °C -14.1 °C 1039.5 hPa North 16.7 km/h   67% 0 mm 0.0 W/m2
06:01 -9.1 °C -14.1 °C 1039.5 hPa North 16.7 km/h   67% 0 mm 0.0 W/m2
06:06 -9.1 °C -14.1 °C 1039.5 hPa North 16.7 km/h   67% 0 mm 0.0 W/m2
06:11 -9.1 °C -14.1 °C 1039.5 hPa North 16.7 km/h   67% 0 mm 0.0 W/m2
06:16 -9.1 °C -14.1 °C 1039.5 hPa North 16.7 km/h   67% 0 mm 0.0 W/m2
06:21 -9.1 °C -14.1 °C 1039.5 hPa North 16.7 km/h   67% 0 mm 0.0 W/m2
06:26 -9.1 °C -14.1 °C 1039.5 hPa North 16.7 km/h   67% 0 mm 0.0 W/m2
06:31 -9.1 °C -14.1 °C 1039.5 hPa North 16.7 km/h   67% 0 mm 0.0 W/m2
06:36 -9.1 °C -14.1 °C 1039.5 hPa North 16.7 km/h   67% 0 mm 0.0 W/m2
06:41 -9.1 °C -14.1 °C 1039.8 hPa North 16.7 km/h   67% 0 mm 0.0 W/m2
06:46 -9.1 °C -14.1 °C 1039.8 hPa North 16.7 km/h   67% 0 mm 0.0 W/m2
06:51 -9.1 °C -14.1 °C 1039.8 hPa North 16.7 km/h   67% 0 mm 0.0 W/m2
06:56 -9.1 °C -14.1 °C 1040.2 hPa North 16.7 km/h   67% 0 mm 0.0 W/m2
07:01 -9.1 °C -14.1 °C 1040.2 hPa North 16.7 km/h   67% 0 mm 0.0 W/m2 CLR
07:06 -9.1 °C -14.1 °C 1040.2 hPa North 16.7 km/h   67% 0 mm 0.0 W/m2 CLR
07:12 -9.1 °C -14.1 °C 1040.2 hPa North 16.7 km/h   67% 0 mm 0.0 W/m2 CLR
07:17 -9.1 °C -14.1 °C 1040.5 hPa North 16.7 km/h   67% 0 mm 0.0 W/m2 CLR
07:22 -9.1 °C -14.1 °C 1040.5 hPa North 16.7 km/h   67% 0 mm 0.0 W/m2 CLR
07:27 -9.1 °C -14.1 °C 1040.9 hPa North 16.7 km/h   67% 0 mm 0.0 W/m2 CLR
07:32 -9.1 °C -14.1 °C 1040.9 hPa North 16.7 km/h   67% 0 mm 0.0 W/m2 CLR
07:37 -9.1 °C -14.1 °C 1040.9 hPa North 16.7 km/h   67% 0 mm 0.0 W/m2 CLR
07:42 -9.1 °C -14.1 °C 1041.2 hPa North 16.7 km/h   67% 0 mm 0.0 W/m2 CLR
07:47 -9.1 °C -14.1 °C 1041.2 hPa North 16.7 km/h   67% 0 mm 0.0 W/m2 CLR
07:52 -9.1 °C -14.1 °C 1041.2 hPa North 16.7 km/h   67% 0 mm 0.0 W/m2 CLR
07:57 -9.1 °C -14.1 °C 1041.2 hPa North 16.7 km/h   67% 0 mm 0.0 W/m2 CLR
08:02 -9.1 °C -14.1 °C 1041.2 hPa North 16.7 km/h   67% 0 mm 0.0 W/m2 CLR
08:08 -9.1 °C -14.1 °C 1041.2 hPa North 16.7 km/h   67% 0 mm 0.0 W/m2 CLR
08:13 -9.1 °C -14.1 °C 1041.5 hPa North 16.7 km/h   67% 0 mm 0.0 W/m2 CLR
08:20 -9.1 °C -14.1 °C 1041.5 hPa North 16.7 km/h   67% 0 mm 0.0 W/m2 CLR
08:27 -9.1 °C -14.1 °C 1041.5 hPa North 16.7 km/h   67% 0 mm 0.0 W/m2 CLR
08:33 -9.1 °C -14.1 °C 1041.5 hPa North 16.7 km/h   67% 0 mm 0.0 W/m2 CLR
08:41 -9.1 °C -14.1 °C 1041.9 hPa North 16.7 km/h   67% 0 mm 0.0 W/m2 CLR
08:53 -9.1 °C -14.1 °C 1041.9 hPa North 16.7 km/h   67% 0 mm 0.0 W/m2 CLR
09:13 -8.6 °C -13.4 °C 1042.5 hPa East 16.7 km/h 16.7 km/h 68% 0 mm 0.0 W/m2 OVC
09:22 -8.4 °C -13.7 °C 1042.9 hPa East 16.7 km/h 16.7 km/h 66% 0 mm 0.0 W/m2 OVC
09:31 -8.1 °C -13.3 °C 1042.9 hPa WSW 16.7 km/h 16.7 km/h 66% 0 mm 0.0 W/m2 OVC
09:36 -7.6 °C -13.1 °C 1042.9 hPa South 16.7 km/h 16.7 km/h 65% 0 mm 0.0 W/m2 OVC
09:41 -7.3 °C -12.7 °C 1042.9 hPa ENE 16.7 km/h 16.7 km/h 65% 0 mm 0.0 W/m2 OVC
09:46 -7.5 °C -13.3 °C 1043.2 hPa ENE 16.7 km/h   63% 0 mm 0.0 W/m2 OVC
09:51 -7.5 °C -13.2 °C 1043.2 hPa SE 16.7 km/h 16.7 km/h 64% 0 mm 0.0 W/m2 OVC
09:56 -7.4 °C -12.9 °C 1043.2 hPa South 16.7 km/h 16.7 km/h 65% 0 mm 0.0 W/m2 OVC
10:01 -7.3 °C -13 °C 1043.2 hPa East 16.7 km/h 16.7 km/h 64% 0 mm 0.0 W/m2 OVC
10:07 -7.1 °C -12.9 °C 1043.6 hPa SSW 16.7 km/h 16.7 km/h 63% 0 mm 0.0 W/m2 OVC
10:12 -7 °C -12.9 °C 1043.6 hPa South 16.7 km/h 16.7 km/h 63% 0 mm 0.0 W/m2 OVC
10:17 -6.8 °C -13.1 °C 1043.6 hPa SSE 16.7 km/h 16.7 km/h 61% 0 mm 0.0 W/m2 OVC
10:22 -6.8 °C -13.1 °C 1043.6 hPa SSW 16.7 km/h 16.7 km/h 61% 0 mm 0.0 W/m2 OVC
10:27 -6.7 °C -13 °C 1043.6 hPa WSW 16.7 km/h 16.7 km/h 61% 0 mm 0.0 W/m2 OVC
10:32 -6.6 °C -13.1 °C 1043.6 hPa ESE 16.7 km/h 16.7 km/h 60% 0 mm 0.0 W/m2 OVC
10:37 -6.2 °C -12.7 °C 1043.6 hPa East 16.7 km/h 16.7 km/h 60% 0 mm 0.0 W/m2 OVC
10:42 -5.7 °C -12.7 °C 1043.6 hPa SSW 16.7 km/h 16.7 km/h 58% 0 mm 0.0 W/m2 OVC
10:47 -5.4 °C -12.6 °C 1043.6 hPa SSW 16.7 km/h 16.7 km/h 57% 0 mm 0.0 W/m2 OVC
10:52 -5.2 °C -12.9 °C 1043.6 hPa East 16.7 km/h 16.7 km/h 55% 0 mm 0.0 W/m2 OVC
10:57 -4.9 °C -12.6 °C 1043.2 hPa SW 16.7 km/h 16.7 km/h 55% 0 mm 0.0 W/m2 OVC
11:02 -4.7 °C -11.7 °C 1043.2 hPa ESE 16.7 km/h 16.7 km/h 58% 0 mm 0.0 W/m2 OVC
11:07 -4.3 °C -11.8 °C 1043.2 hPa NW 16.7 km/h 16.7 km/h 56% 0 mm 0.0 W/m2 OVC
11:12 -4.1 °C -12.5 °C 1043.2 hPa SSW 16.7 km/h 16.7 km/h 52% 0 mm 0.0 W/m2 OVC
11:17 -3.8 °C -12.4 °C 1043.2 hPa SE 16.7 km/h 16.7 km/h 51% 0 mm 0.0 W/m2 OVC
11:22 -3.5 °C -12.4 °C 1043.2 hPa SSW 16.7 km/h 16.7 km/h 50% 0 mm 0.0 W/m2 OVC
11:28 -3.4 °C -12.7 °C 1042.9 hPa North 16.7 km/h 16.7 km/h 49% 0 mm 0.0 W/m2 OVC
11:33 -3.2 °C -12.1 °C 1042.9 hPa NE 16.7 km/h   50% 0 mm 0.0 W/m2 OVC
11:38 -3 °C -12 °C 1042.9 hPa WSW 16.7 km/h 16.7 km/h 50% 0 mm 0.0 W/m2 OVC
11:43 -2.7 °C -12.2 °C 1042.9 hPa NNE 16.7 km/h   48% 0 mm 0.0 W/m2 OVC
11:48 -2.5 °C -11.8 °C 1042.9 hPa East 16.7 km/h 16.7 km/h 49% 0 mm 0.0 W/m2 OVC
11:53 -2.8 °C -12.6 °C 1042.5 hPa NNE 16.7 km/h 16.7 km/h 47% 0 mm 0.0 W/m2 OVC
11:58 -2.5 °C -13.1 °C 1042.5 hPa East 16.7 km/h 16.7 km/h 44% 0 mm 0.0 W/m2 OVC
12:03 -2.6 °C -13.2 °C 1042.2 hPa ENE 16.7 km/h   44% 0 mm 0.0 W/m2 OVC
12:08 -2.3 °C -12.1 °C 1042.2 hPa SE 16.7 km/h 16.7 km/h 47% 0 mm 0.0 W/m2 OVC
12:13 -2.3 °C -12.9 °C 1041.9 hPa East 16.7 km/h 16.7 km/h 44% 0 mm 0.0 W/m2 OVC
12:18 -2.1 °C -12.7 °C 1041.9 hPa East 16.7 km/h 16.7 km/h 44% 0 mm 0.0 W/m2 OVC
12:24 -1.9 °C -13.2 °C 1041.9 hPa SE 16.7 km/h 16.7 km/h 42% 0 mm 0.0 W/m2 OVC
12:29 -1.9 °C -12.6 °C 1041.9 hPa South 16.7 km/h 16.7 km/h 44% 0 mm 0.0 W/m2 OVC
12:34 -1.9 °C -13.4 °C 1041.5 hPa ENE 16.7 km/h 16.7 km/h 41% 0 mm 0.0 W/m2 OVC
12:39 -1.6 °C -13.4 °C 1041.5 hPa SW 16.7 km/h 16.7 km/h 40% 0 mm 0.0 W/m2 OVC
12:44 -1.6 °C -13.4 °C 1041.5 hPa East 16.7 km/h 16.7 km/h 40% 0 mm 0.0 W/m2 OVC
12:49 -1.4 °C -13 °C 1041.2 hPa SSW 16.7 km/h 16.7 km/h 41% 0 mm 0.0 W/m2 OVC
12:54 -1.2 °C -13.1 °C 1041.2 hPa SE 16.7 km/h 16.7 km/h 40% 0 mm 0.0 W/m2 OVC
12:59 -1.3 °C -13.2 °C 1041.2 hPa ENE 16.7 km/h 16.7 km/h 40% 0 mm 0.0 W/m2 OVC
13:04 -1.4 °C -13.6 °C 1040.9 hPa ENE 16.7 km/h 16.7 km/h 39% 0 mm 0.0 W/m2 OVC
13:09 -1.3 °C -13.5 °C 1040.9 hPa ENE 16.7 km/h 16.7 km/h 39% 0 mm 0.0 W/m2 OVC
13:14 -1.2 °C -12.8 °C 1040.9 hPa SW 16.7 km/h   41% 0 mm 0.0 W/m2 OVC
13:19 -0.9 °C -12.6 °C 1040.9 hPa East 16.7 km/h   41% 0 mm 0.0 W/m2 OVC
13:25 -0.8 °C -13.1 °C 1040.9 hPa South 16.7 km/h 16.7 km/h 39% 0 mm 0.0 W/m2 OVC
13:30 -0.8 °C -13.1 °C 1040.9 hPa SSW 16.7 km/h 16.7 km/h 39% 0 mm 0.0 W/m2 OVC
13:35 -0.8 °C -13.3 °C 1040.9 hPa ESE 16.7 km/h 16.7 km/h 38% 0 mm 0.0 W/m2 OVC
13:40 -0.6 °C -11.9 °C 1040.9 hPa North 16.7 km/h   42% 0 mm 0.0 W/m2 OVC
13:45 -0.7 °C -13.3 °C 1040.9 hPa South 16.7 km/h 16.7 km/h 38% 0 mm 0.0 W/m2 OVC
13:50 -0.8 °C -13.1 °C 1040.9 hPa East 16.7 km/h 16.7 km/h 39% 0 mm 0.0 W/m2 OVC
13:55 -0.8 °C -12.8 °C 1040.9 hPa SE 16.7 km/h 16.7 km/h 40% 0 mm 0.0 W/m2 OVC
14:00 -0.9 °C -12.6 °C 1040.9 hPa ENE 16.7 km/h   41% 0 mm 0.0 W/m2 OVC
14:05 -0.9 °C -11.9 °C 1040.5 hPa SSW 16.7 km/h 16.7 km/h 43% 0 mm 0.0 W/m2 OVC
14:10 -0.8 °C -13.4 °C 1040.5 hPa ENE 16.7 km/h 16.7 km/h 38% 0 mm 0.0 W/m2 OVC
14:15 -0.9 °C -12.6 °C 1040.5 hPa ESE 16.7 km/h 16.7 km/h 41% 0 mm 0.0 W/m2 OVC
14:20 -0.9 °C -12.6 °C 1040.5 hPa South 16.7 km/h   41% 0 mm 0.0 W/m2 OVC
14:25 -0.9 °C -12.9 °C 1040.5 hPa SSW 16.7 km/h 16.7 km/h 40% 0 mm 0.0 W/m2 OVC
14:30 -0.9 °C -13.1 °C 1040.5 hPa ENE 16.7 km/h 16.7 km/h 39% 0 mm 0.0 W/m2 OVC
14:35 -0.9 °C -13.1 °C 1040.5 hPa South 16.7 km/h 16.7 km/h 39% 0 mm 0.0 W/m2 OVC
14:40 -0.8 °C -11.9 °C 1040.5 hPa NNE 16.7 km/h 16.7 km/h 43% 0 mm 0.0 W/m2 OVC
14:46 -0.7 °C -13 °C 1040.5 hPa ENE 16.7 km/h 16.7 km/h 39% 0 mm 0.0 W/m2 OVC
14:51 -0.8 °C -12.4 °C 1040.5 hPa NNW 16.7 km/h   41% 0 mm 0.0 W/m2 OVC
14:56 -0.8 °C -13.3 °C 1040.5 hPa SW 16.7 km/h 16.7 km/h 38% 0 mm 0.0 W/m2 OVC
15:01 -0.8 °C -13.1 °C 1040.5 hPa SE 16.7 km/h 16.7 km/h 39% 0 mm 0.0 W/m2 OVC
15:06 -0.8 °C -12.7 °C 1040.5 hPa ENE 16.7 km/h   40% 0 mm 0.0 W/m2 OVC
15:11 -0.9 °C -13.1 °C 1040.2 hPa SSW 16.7 km/h 16.7 km/h 39% 0 mm 0.0 W/m2 OVC
15:16 -1 °C -12.3 °C 1040.2 hPa SW 16.7 km/h 16.7 km/h 42% 0 mm 0.0 W/m2 OVC
15:21 -0.9 °C -11.1 °C 1040.5 hPa SW 16.7 km/h 16.7 km/h 46% 0 mm 0.0 W/m2 OVC
15:26 -0.9 °C -12.6 °C 1040.2 hPa ESE 16.7 km/h   41% 0 mm 0.0 W/m2 OVC
15:31 -0.9 °C -12.9 °C 1040.2 hPa ESE 16.7 km/h   40% 0 mm 0.0 W/m2 OVC
15:36 -0.8 °C -12.4 °C 1040.5 hPa ENE 16.7 km/h 16.7 km/h 41% 0 mm 0.0 W/m2 OVC
15:41 -0.8 °C -13.4 °C 1040.5 hPa North 16.7 km/h   38% 0 mm 0.0 W/m2 OVC
15:46 -0.9 °C -12.5 °C 1040.5 hPa NNW 16.7 km/h 16.7 km/h 41% 0 mm 0.0 W/m2 OVC
15:52 -0.9 °C -12.6 °C 1040.5 hPa SW 16.7 km/h 16.7 km/h 41% 0 mm 0.0 W/m2 OVC
15:57 -0.9 °C -13.2 °C 1040.5 hPa ESE 16.7 km/h 16.7 km/h 39% 0 mm 0.0 W/m2 OVC
16:02 -1 °C -13.2 °C 1040.5 hPa NE 16.7 km/h 16.7 km/h 39% 0 mm 0.0 W/m2 CLR
16:07 -1.1 °C -13.3 °C 1040.5 hPa ENE 16.7 km/h 16.7 km/h 39% 0 mm 0.0 W/m2 CLR
16:12 -1.2 °C -13.4 °C 1040.5 hPa NW 16.7 km/h 16.7 km/h 39% 0 mm 0.0 W/m2 CLR
16:17 -1.3 °C -13.8 °C 1040.5 hPa SE 16.7 km/h   38% 0 mm 0.0 W/m2 CLR
16:22 -1.3 °C -13.5 °C 1040.5 hPa North 16.7 km/h   39% 0 mm 0.0 W/m2 CLR
16:27 -1.3 °C -13.5 °C 1040.5 hPa East 16.7 km/h 16.7 km/h 39% 0 mm 0.0 W/m2 CLR
16:32 -1.3 °C -13.2 °C 1040.5 hPa WSW 16.7 km/h 16.7 km/h 40% 0 mm 0.0 W/m2 CLR
16:37 -1.3 °C -13.2 °C 1040.9 hPa East 16.7 km/h   40% 0 mm 0.0 W/m2 CLR
16:42 -1.4 °C -13 °C 1040.9 hPa NW 16.7 km/h   41% 0 mm 0.0 W/m2 CLR
16:48 -1.4 °C -12.2 °C 1040.9 hPa SW 16.7 km/h 16.7 km/h 44% 0 mm 0.0 W/m2 CLR
16:53 -1.5 °C -13.1 °C 1040.9 hPa East 16.7 km/h 16.7 km/h 41% 0 mm 0.0 W/m2 CLR
16:58 -1.5 °C -12.8 °C 1040.9 hPa SSE 16.7 km/h   42% 0 mm 0.0 W/m2 CLR
17:03 -1.6 °C -13.2 °C 1040.9 hPa ENE 16.7 km/h 16.7 km/h 41% 0 mm 0.0 W/m2 CLR
17:08 -1.6 °C -13.2 °C 1040.9 hPa East 16.7 km/h   41% 0 mm 0.0 W/m2 CLR
17:13 -1.7 °C -12.1 °C 1040.9 hPa NNE 16.7 km/h   45% 0 mm 0.0 W/m2 CLR
17:18 -1.8 °C -12.7 °C 1040.9 hPa East 16.7 km/h 16.7 km/h 43% 0 mm 0.0 W/m2 CLR
17:23 -1.9 °C -12.6 °C 1040.9 hPa NE 16.7 km/h 16.7 km/h 44% 0 mm 0.0 W/m2 CLR
17:28 -1.9 °C -12.1 °C 1040.9 hPa North 16.7 km/h   46% 0 mm 0.0 W/m2 CLR
17:33 -2.1 °C -12.4 °C 1040.9 hPa SSW 16.7 km/h 16.7 km/h 45% 0 mm 0.0 W/m2 CLR
17:38 -2.1 °C -12.5 °C 1040.9 hPa NW 16.7 km/h   45% 0 mm 0.0 W/m2 CLR
17:43 -2.2 °C -12.8 °C 1040.9 hPa North 16.7 km/h   44% 0 mm 0.0 W/m2 CLR
17:48 -2.3 °C -12.7 °C 1040.9 hPa NE 16.7 km/h   45% 0 mm 0.0 W/m2 CLR
17:53 -2.3 °C -12.1 °C 1041.2 hPa ESE 16.7 km/h   47% 0 mm 0.0 W/m2 CLR
17:58 -2.4 °C -12 °C 1041.2 hPa NW 16.7 km/h   48% 0 mm 0.0 W/m2 CLR
18:04 -2.5 °C -12.6 °C 1041.2 hPa SSW 16.7 km/h   46% 0 mm 0.0 W/m2
18:09 -2.6 °C -12.3 °C 1041.2 hPa South 16.7 km/h   47% 0 mm 0.0 W/m2
18:14 -2.6 °C -12.6 °C 1041.2 hPa NW 16.7 km/h   46% 0 mm 0.0 W/m2
18:19 -2.6 °C -12.7 °C 1041.2 hPa NNW 16.7 km/h   46% 0 mm 0.0 W/m2
18:24 -2.6 °C -12.7 °C 1041.2 hPa NNW 16.7 km/h   46% 0 mm 0.0 W/m2
18:29 -2.6 °C -11.9 °C 1041.2 hPa NNW 16.7 km/h   49% 0 mm 0.0 W/m2
18:34 -2.7 °C -11.9 °C 1040.9 hPa NNW 16.7 km/h   49% 0 mm 0.0 W/m2
18:39 -2.7 °C -12.5 °C 1041.2 hPa NNW 16.7 km/h   47% 0 mm 0.0 W/m2
18:44 -2.7 °C -12.4 °C 1040.9 hPa SW 16.7 km/h 16.7 km/h 47% 0 mm 0.0 W/m2
18:49 -2.7 °C -12.5 °C 1040.9 hPa East 16.7 km/h   47% 0 mm 0.0 W/m2
18:54 -2.7 °C -12.8 °C 1040.5 hPa East 16.7 km/h   46% 0 mm 0.0 W/m2
18:59 -2.8 °C -12 °C 1040.5 hPa East 16.7 km/h   49% 0 mm 0.0 W/m2
19:04 -2.8 °C -12.6 °C 1040.5 hPa East 16.7 km/h   47% 0 mm 0.0 W/m2
19:10 -2.9 °C -12.2 °C 1040.2 hPa East 16.7 km/h 16.7 km/h 49% 0 mm 0.0 W/m2
19:15 -2.9 °C -12.7 °C 1040.2 hPa East 16.7 km/h   47% 0 mm 0.0 W/m2
19:20 -3 °C -12 °C 1040.2 hPa East 16.7 km/h   50% 0 mm 0.0 W/m2
19:25 -3.1 °C -12.1 °C 1040.5 hPa East 16.7 km/h   50% 0 mm 0.0 W/m2
19:30 -3.2 °C -12.1 °C 1040.2 hPa East 16.7 km/h   50% 0 mm 0.0 W/m2
19:35 -3.2 °C -12.4 °C 1040.5 hPa East 16.7 km/h   49% 0 mm 0.0 W/m2
19:40 -3.3 °C -11.7 °C 1040.5 hPa East 16.7 km/h   52% 0 mm 0.0 W/m2
19:45 -3.4 °C -11.6 °C 1040.5 hPa East 16.7 km/h   53% 0 mm 0.0 W/m2
19:50 -3.5 °C -11.7 °C 1040.9 hPa East 16.7 km/h   53% 0 mm 0.0 W/m2
19:55 -3.6 °C -11.8 °C 1040.9 hPa East 16.7 km/h   53% 0 mm 0.0 W/m2
20:00 -3.6 °C -11.6 °C 1040.9 hPa East 16.7 km/h   54% 0 mm 0.0 W/m2
20:05 -3.6 °C -11.3 °C 1040.9 hPa East 16.7 km/h   55% 0 mm 0.0 W/m2
20:10 -3.6 °C -10.9 °C 1040.9 hPa East 16.7 km/h   57% 0 mm 0.0 W/m2
20:15 -3.7 °C -11 °C 1041.2 hPa North 16.7 km/h   57% 0 mm 0.0 W/m2
20:20 -3.8 °C -11.3 °C 1041.2 hPa North 16.7 km/h   56% 0 mm 0.0 W/m2
20:25 -3.8 °C -10.9 °C 1041.2 hPa North 16.7 km/h   58% 0 mm 0.0 W/m2
20:31 -3.8 °C -11.1 °C 1041.2 hPa North 16.7 km/h   57% 0 mm 0.0 W/m2
20:36 -3.7 °C -11.4 °C 1041.2 hPa North 16.7 km/h   55% 0 mm 0.0 W/m2
20:41 -3.7 °C -10.9 °C 1041.2 hPa North 16.7 km/h   57% 0 mm 0.0 W/m2
20:46 -3.7 °C -11.4 °C 1041.2 hPa North 16.7 km/h   55% 0 mm 0.0 W/m2
20:51 -3.7 °C -11.2 °C 1041.2 hPa North 16.7 km/h   56% 0 mm 0.0 W/m2
20:56 -3.7 °C -11 °C 1041.2 hPa North 16.7 km/h   57% 0 mm 0.0 W/m2
21:01 -3.7 °C -11 °C 1041.2 hPa North 16.7 km/h   57% 0 mm 0.0 W/m2
21:06 -3.7 °C -11.4 °C 1041.2 hPa North 16.7 km/h   55% 0 mm 0.0 W/m2
21:11 -3.7 °C -11.2 °C 1041.2 hPa North 16.7 km/h   56% 0 mm 0.0 W/m2
21:16 -3.8 °C -11.3 °C 1041.2 hPa North 16.7 km/h   56% 0 mm 0.0 W/m2
21:21 -3.9 °C -10.7 °C 1041.5 hPa North 16.7 km/h   59% 0 mm 0.0 W/m2
21:26 -4 °C -11.1 °C 1041.5 hPa North 16.7 km/h   58% 0 mm 0.0 W/m2
21:31 -4 °C -10.8 °C 1041.2 hPa NE 16.7 km/h   59% 0 mm 0.0 W/m2
21:36 -4.1 °C -11.1 °C 1040.9 hPa NE 16.7 km/h   58% 0 mm 0.0 W/m2
21:42 -4.1 °C -10.9 °C 1040.9 hPa NNE 16.7 km/h   59% 0 mm 0.0 W/m2
21:47 -4.1 °C -11.2 °C 1041.2 hPa NNE 16.7 km/h   58% 0 mm 0.0 W/m2
21:52 -4.1 °C -10.9 °C 1041.2 hPa NNE 16.7 km/h   59% 0 mm 0.0 W/m2
21:57 -4.1 °C -11.2 °C 1041.2 hPa NNE 16.7 km/h   58% 0 mm 0.0 W/m2
22:02 -4.1 °C -11.6 °C 1041.2 hPa NNE 16.7 km/h   56% 0 mm 0.0 W/m2
22:07 -4 °C -11.1 °C 1040.9 hPa NNE 16.7 km/h   58% 0 mm 0.0 W/m2
22:12 -4 °C -11.1 °C 1040.9 hPa NNE 16.7 km/h   58% 0 mm 0.0 W/m2
22:17 -4 °C -11.1 °C 1040.9 hPa North 16.7 km/h   58% 0 mm 0.0 W/m2
22:22 -3.9 °C -11 °C 1041.2 hPa East 16.7 km/h   58% 0 mm 0.0 W/m2
22:27 -3.9 °C -10.7 °C 1040.9 hPa East 16.7 km/h   59% 0 mm 0.0 W/m2
22:33 -3.9 °C -10.5 °C 1040.9 hPa NNW 16.7 km/h   60% 0 mm 0.0 W/m2
22:38 -3.9 °C -10.8 °C 1040.9 hPa NNW 16.7 km/h   59% 0 mm 0.0 W/m2
22:43 -3.9 °C -11 °C 1040.9 hPa NNW 16.7 km/h 16.7 km/h 58% 0 mm 0.0 W/m2
22:48 -3.9 °C -11 °C 1040.9 hPa NNE 16.7 km/h   58% 0 mm 0.0 W/m2
22:53 -3.9 °C -11.2 °C 1040.9 hPa ENE 16.7 km/h   57% 0 mm 0.0 W/m2
22:58 -3.9 °C -11 °C 1040.9 hPa ENE 16.7 km/h   58% 0 mm 0.0 W/m2
23:03 -3.9 °C -10.4 °C 1040.9 hPa ENE 16.7 km/h   61% 0 mm 0.0 W/m2
23:08 -4 °C -10.8 °C 1040.5 hPa ENE 16.7 km/h   59% 0 mm 0.0 W/m2
23:14 -4.1 °C -10.9 °C 1040.9 hPa ENE 16.7 km/h   59% 0 mm 0.0 W/m2
23:19 -4.1 °C -10.7 °C 1040.9 hPa ENE 16.7 km/h   60% 0 mm 0.0 W/m2
23:24 -4.1 °C -10.9 °C 1040.5 hPa ENE 16.7 km/h   59% 0 mm 0.0 W/m2
23:29 -4.2 °C -11 °C 1040.5 hPa ENE 16.7 km/h   59% 0 mm 0.0 W/m2
23:34 -4.2 °C -10.6 °C 1040.5 hPa ENE 16.7 km/h   61% 0 mm 0.0 W/m2
23:39 -4.2 °C -10.6 °C 1040.9 hPa ENE 16.7 km/h   61% 0 mm 0.0 W/m2
23:44 -4.2 °C -10.8 °C 1040.9 hPa ENE 16.7 km/h   60% 0 mm 0.0 W/m2
23:49 -4.2 °C -11.1 °C 1040.9 hPa ENE 16.7 km/h   59% 0 mm 0.0 W/m2
23:54 -4.2 °C -10.8 °C 1040.9 hPa ENE 16.7 km/h   60% 0 mm 0.0 W/m2
23:59 -4.2 °C -10.6 °C 1040.9 hPa NNE 16.7 km/h   61% 0 mm 0.0 W/m2
Piedmont Bend
Compliments of Weather Underground - 4 mb